Time;durP1;ratioP1;P1;durP2;ratioP2;P2;SDS_P1;SDS_P2;PMS_P1;PMS_P2;Temp;Humidity;BMP_temperature;BMP_pressure;BME280_temperature;BME280_humidity;BME280_pressure;Samples;Min_cycle;Max_cycle;Signal;HPM_P1;HPM_P2
2023/12/03 00:01:49;;;;;;;11.48;9.82;;;;;;;;;;4977901;28;20207;-61
2023/12/03 00:04:17;;;;;;;10.65;9.40;;;;;;;;;;4977403;28;20204;-61
2023/12/03 00:06:44;;;;;;;10.38;8.52;;;;;;;;;;4978288;28;20294;-61
2023/12/03 00:09:12;;;;;;;10.43;9.18;;;;;;;;;;4978131;28;20207;-61
2023/12/03 00:11:39;;;;;;;10.43;8.52;;;;;;;;;;4977699;28;20684;-61
2023/12/03 00:14:09;;;;;;;10.13;9.13;;;;;;;;;;4977087;28;20310;-61
2023/12/03 00:16:36;;;;;;;10.32;8.68;;;;;;;;;;4977757;28;20254;-61
2023/12/03 00:19:03;;;;;;;9.43;8.52;;;;;;;;;;4977844;28;20643;-61
2023/12/03 00:21:31;;;;;;;9.30;8.40;;;;;;;;;;4978264;28;20306;-61
2023/12/03 00:23:58;;;;;;;8.88;7.97;;;;;;;;;;4981342;28;20276;-61
2023/12/03 00:26:26;;;;;;;9.63;8.63;;;;;;;;;;4981088;28;20204;-61
2023/12/03 00:28:54;;;;;;;8.98;8.02;;;;;;;;;;4981172;28;20204;-61
2023/12/03 00:31:23;;;;;;;9.80;7.93;;;;;;;;;;4981578;28;20222;-61
2023/12/03 00:33:50;;;;;;;8.68;7.78;;;;;;;;;;4981398;28;20647;-61
2023/12/03 00:36:18;;;;;;;8.23;7.30;;;;;;;;;;4980812;28;20613;-61
2023/12/03 00:38:45;;;;;;;7.97;7.18;;;;;;;;;;4981275;28;20231;-61
2023/12/03 00:41:13;;;;;;;7.97;7.18;;;;;;;;;;4981237;28;20207;-61
2023/12/03 00:43:40;;;;;;;8.50;7.43;;;;;;;;;;4981115;28;20211;-61
2023/12/03 00:46:08;;;;;;;7.70;6.90;;;;;;;;;;4981163;28;20254;-61
2023/12/03 00:48:37;;;;;;;7.75;6.53;;;;;;;;;;4980904;28;20298;-61
2023/12/03 00:51:05;;;;;;;7.10;6.40;;;;;;;;;;4980961;28;20208;-61
2023/12/03 00:53:32;;;;;;;7.60;6.80;;;;;;;;;;4980987;28;20532;-61
2023/12/03 00:56:00;;;;;;;7.50;6.80;;;;;;;;;;4980648;28;20245;-61
2023/12/03 00:58:27;;;;;;;6.90;6.30;;;;;;;;;;4981031;28;20618;-61
2023/12/03 01:00:55;;;;;;;7.05;6.35;;;;;;;;;;4980619;28;20282;-61
2023/12/03 01:03:22;;;;;;;6.55;5.90;;;;;;;;;;4981048;28;20239;-61
2023/12/03 01:05:51;;;;;;;6.80;6.10;;;;;;;;;;4980597;28;20204;-61
2023/12/03 01:08:18;;;;;;;6.70;6.00;;;;;;;;;;4980545;28;20208;-61
2023/12/03 01:10:46;;;;;;;6.47;5.78;;;;;;;;;;4980079;28;20502;-61
2023/12/03 01:13:14;;;;;;;6.07;5.47;;;;;;;;;;4980729;28;20315;-61
2023/12/03 01:15:41;;;;;;;6.00;5.35;;;;;;;;;;4980767;28;20228;-61
2023/12/03 01:18:10;;;;;;;6.20;5.60;;;;;;;;;;4980740;28;20255;-61
2023/12/03 01:20:37;;;;;;;6.05;5.50;;;;;;;;;;4980457;28;20207;-61
2023/12/03 01:23:06;;;;;;;5.72;5.22;;;;;;;;;;4980390;28;20470;-61
2023/12/03 01:25:34;;;;;;;6.70;5.50;;;;;;;;;;4980552;28;20210;-61
2023/12/03 01:28:00;;;;;;;5.82;5.30;;;;;;;;;;4980450;28;20208;-61
2023/12/03 01:30:28;;;;;;;5.75;5.13;;;;;;;;;;4980883;28;20203;-61
2023/12/03 01:32:55;;;;;;;5.50;5.00;;;;;;;;;;4980001;28;20254;-61
2023/12/03 01:35:22;;;;;;;5.60;5.10;;;;;;;;;;4980320;28;20239;-61
2023/12/03 01:37:50;;;;;;;5.30;4.80;;;;;;;;;;4980280;28;20274;-61
2023/12/03 01:40:19;;;;;;;5.22;4.72;;;;;;;;;;4980181;28;20298;-61
2023/12/03 01:42:46;;;;;;;5.75;5.10;;;;;;;;;;4980040;28;20576;-61
2023/12/03 01:45:14;;;;;;;5.50;4.97;;;;;;;;;;4979979;28;20235;-61
2023/12/03 01:47:41;;;;;;;5.10;4.43;;;;;;;;;;4979990;28;20222;-61
2023/12/03 01:50:11;;;;;;;5.53;5.03;;;;;;;;;;4980082;28;20208;-61
2023/12/03 01:52:39;;;;;;;5.35;4.80;;;;;;;;;;4980158;28;20208;-61
2023/12/03 01:55:07;;;;;;;5.10;4.60;;;;;;;;;;4979978;28;20298;-62
2023/12/03 01:57:36;;;;;;;5.40;4.90;;;;;;;;;;4980140;28;20212;-62
2023/12/03 02:00:05;;;;;;;4.80;4.38;;;;;;;;;;4979982;28;20207;-61
2023/12/03 02:02:32;;;;;;;4.95;4.45;;;;;;;;;;4979782;28;20207;-61
2023/12/03 02:05:00;;;;;;;4.80;4.30;;;;;;;;;;4979713;28;20204;-61
2023/12/03 02:07:28;;;;;;;4.45;4.05;;;;;;;;;;4979587;28;20258;-61
2023/12/03 02:09:55;;;;;;;4.38;3.97;;;;;;;;;;4979834;28;20306;-61
2023/12/03 02:12:23;;;;;;;4.50;4.10;;;;;;;;;;4979609;28;20216;-61
2023/12/03 02:14:52;;;;;;;4.78;4.35;;;;;;;;;;4979632;28;20575;-61
2023/12/03 02:17:19;;;;;;;4.45;4.05;;;;;;;;;;4979518;28;20243;-60
2023/12/03 02:19:47;;;;;;;4.60;4.20;;;;;;;;;;4979416;28;20294;-61
2023/12/03 02:22:14;;;;;;;4.47;4.07;;;;;;;;;;4979161;28;20208;-61
2023/12/03 02:24:43;;;;;;;4.50;4.10;;;;;;;;;;4979214;28;20243;-61
2023/12/03 02:27:11;;;;;;;4.20;3.80;;;;;;;;;;4979445;28;20562;-61
2023/12/03 02:29:38;;;;;;;4.53;4.13;;;;;;;;;;4979281;28;20208;-61
2023/12/03 02:32:06;;;;;;;4.30;3.90;;;;;;;;;;4978715;28;20616;-61
2023/12/03 02:34:33;;;;;;;4.60;4.20;;;;;;;;;;4979127;28;20607;-61
2023/12/03 02:37:01;;;;;;;4.15;3.80;;;;;;;;;;4978728;28;20331;-61
2023/12/03 02:39:28;;;;;;;4.38;3.97;;;;;;;;;;4979102;28;20239;-61
2023/12/03 02:41:57;;;;;;;4.40;4.00;;;;;;;;;;4979092;28;20208;-61
2023/12/03 02:44:25;;;;;;;4.38;3.97;;;;;;;;;;4978746;28;20284;-61
2023/12/03 02:46:52;;;;;;;3.85;3.55;;;;;;;;;;4978365;28;20204;-61
2023/12/03 02:49:20;;;;;;;4.53;4.13;;;;;;;;;;4978886;28;20208;-61
2023/12/03 02:51:47;;;;;;;4.00;3.70;;;;;;;;;;4979032;28;20207;-61
2023/12/03 02:54:15;;;;;;;3.40;3.10;;;;;;;;;;4978383;28;20207;-61
2023/12/03 02:56:42;;;;;;;3.60;3.30;;;;;;;;;;4979167;28;20296;-61
2023/12/03 02:59:11;;;;;;;3.80;3.50;;;;;;;;;;4978513;28;20291;-61
2023/12/03 03:01:39;;;;;;;3.80;3.50;;;;;;;;;;4978267;28;20207;-61
2023/12/03 03:04:06;;;;;;;4.38;3.58;;;;;;;;;;4978936;28;20208;-61
2023/12/03 03:06:34;;;;;;;4.13;3.83;;;;;;;;;;4978923;28;20204;-61
2023/12/03 03:09:01;;;;;;;3.70;3.35;;;;;;;;;;4978719;28;20253;-61
2023/12/03 03:11:28;;;;;;;3.85;3.35;;;;;;;;;;4978670;28;20550;-61
2023/12/03 03:13:56;;;;;;;3.90;3.60;;;;;;;;;;4978741;28;20262;-61
2023/12/03 03:16:26;;;;;;;3.65;3.35;;;;;;;;;;4978765;28;20236;-61
2023/12/03 03:18:54;;;;;;;3.78;3.47;;;;;;;;;;4979083;28;20224;-61
2023/12/03 03:21:22;;;;;;;3.78;3.47;;;;;;;;;;4978318;28;20250;-61
2023/12/03 03:23:49;;;;;;;4.03;3.63;;;;;;;;;;4978630;28;20215;-61
2023/12/03 03:26:17;;;;;;;3.55;3.25;;;;;;;;;;4978775;28;20257;-61
2023/12/03 03:28:44;;;;;;;3.90;3.50;;;;;;;;;;4978662;28;20595;-61
2023/12/03 03:31:12;;;;;;;3.60;3.30;;;;;;;;;;4978666;28;20211;-61
2023/12/03 03:33:40;;;;;;;3.78;3.45;;;;;;;;;;4978144;28;20239;-60
2023/12/03 03:36:08;;;;;;;3.67;3.38;;;;;;;;;;4978284;28;20309;-60
2023/12/03 03:38:36;;;;;;;3.33;3.03;;;;;;;;;;4978345;28;20239;-60
2023/12/03 03:41:04;;;;;;;3.35;3.08;;;;;;;;;;4978444;28;20235;-61
2023/12/03 03:43:31;;;;;;;3.85;3.50;;;;;;;;;;4978132;28;20207;-61
2023/12/03 03:45:59;;;;;;;3.08;2.88;;;;;;;;;;4978655;28;20204;-61
2023/12/03 03:48:26;;;;;;;3.42;3.13;;;;;;;;;;4978765;28;20536;-61
2023/12/03 03:50:55;;;;;;;3.20;2.90;;;;;;;;;;4978060;28;20302;-61
2023/12/03 03:53:23;;;;;;;3.63;2.95;;;;;;;;;;4978305;28;20212;-61
2023/12/03 03:55:51;;;;;;;3.33;3.03;;;;;;;;;;4978540;28;20232;-61
2023/12/03 03:58:18;;;;;;;3.80;2.90;;;;;;;;;;4981796;28;20257;-61
2023/12/03 04:00:46;;;;;;;3.03;2.75;;;;;;;;;;4981986;28;20612;-61
2023/12/03 04:03:13;;;;;;;3.13;2.83;;;;;;;;;;4982056;28;20223;-61
2023/12/03 04:05:41;;;;;;;3.08;2.88;;;;;;;;;;4981877;28;20246;-61
2023/12/03 04:08:11;;;;;;;3.38;3.05;;;;;;;;;;4981986;28;20218;-61
2023/12/03 04:10:38;;;;;;;3.30;3.00;;;;;;;;;;4982207;28;20302;-60
2023/12/03 04:13:05;;;;;;;2.95;2.75;;;;;;;;;;4981837;28;20654;-60
2023/12/03 04:15:33;;;;;;;3.63;3.00;;;;;;;;;;4981935;28;20207;-61
2023/12/03 04:18:00;;;;;;;3.25;2.95;;;;;;;;;;4981912;28;20305;-61
2023/12/03 04:20:28;;;;;;;3.00;2.70;;;;;;;;;;4982004;28;20295;-61
2023/12/03 04:22:56;;;;;;;3.83;2.67;;;;;;;;;;4981483;28;20258;-61
2023/12/03 04:25:24;;;;;;;3.28;2.97;;;;;;;;;;4981384;28;20204;-61
2023/12/03 04:27:52;;;;;;;2.90;2.60;;;;;;;;;;4982164;28;20562;-61
2023/12/03 04:30:19;;;;;;;2.80;2.60;;;;;;;;;;4981799;28;20207;-61
2023/12/03 04:32:47;;;;;;;2.92;2.72;;;;;;;;;;4981832;28;20592;-61
2023/12/03 04:35:14;;;;;;;3.20;2.90;;;;;;;;;;4981674;28;20270;-61
2023/12/03 04:37:42;;;;;;;3.08;2.78;;;;;;;;;;4981299;28;20686;-61
2023/12/03 04:40:10;;;;;;;2.90;2.70;;;;;;;;;;4981279;28;20270;-61
2023/12/03 04:42:38;;;;;;;3.30;3.00;;;;;;;;;;4981241;28;20199;-61
2023/12/03 04:45:07;;;;;;;2.75;2.55;;;;;;;;;;4981238;28;20211;-61
2023/12/03 04:47:35;;;;;;;2.80;2.60;;;;;;;;;;4981296;28;20251;-61
2023/12/03 04:50:02;;;;;;;3.13;2.92;;;;;;;;;;4981340;28;20259;-62
2023/12/03 04:52:30;;;;;;;3.35;3.05;;;;;;;;;;4980732;28;20283;-61
2023/12/03 04:54:57;;;;;;;2.90;2.70;;;;;;;;;;4980315;28;20294;-61
2023/12/03 04:57:24;;;;;;;2.78;2.58;;;;;;;;;;4980932;28;20242;-61
2023/12/03 04:59:53;;;;;;;2.97;2.78;;;;;;;;;;4980809;28;20212;-61
2023/12/03 05:02:21;;;;;;;2.63;2.42;;;;;;;;;;4980854;28;20223;-61
2023/12/03 05:04:48;;;;;;;2.80;2.60;;;;;;;;;;4980809;28;20219;-61
2023/12/03 05:07:16;;;;;;;2.60;2.40;;;;;;;;;;4980294;28;20212;-61
2023/12/03 05:09:43;;;;;;;2.75;2.55;;;;;;;;;;4979375;28;20207;-61
2023/12/03 05:12:10;;;;;;;2.90;2.70;;;;;;;;;;4980935;28;20510;-61
2023/12/03 05:14:38;;;;;;;2.78;2.58;;;;;;;;;;4980792;28;20533;-61
2023/12/03 05:17:07;;;;;;;2.90;2.70;;;;;;;;;;4980866;28;20231;-61
2023/12/03 05:19:35;;;;;;;2.60;2.40;;;;;;;;;;4980930;28;20480;-61
2023/12/03 05:22:02;;;;;;;2.70;2.50;;;;;;;;;;4980495;28;20212;-61
2023/12/03 05:24:29;;;;;;;3.15;2.85;;;;;;;;;;4980622;28;20216;-61
2023/12/03 05:26:57;;;;;;;3.08;2.78;;;;;;;;;;4980663;28;20203;-61
2023/12/03 05:29:25;;;;;;;3.17;2.97;;;;;;;;;;4980359;28;20215;-61
2023/12/03 05:31:52;;;;;;;2.85;2.65;;;;;;;;;;4980240;28;20217;-61
2023/12/03 05:34:21;;;;;;;2.95;2.67;;;;;;;;;;4980068;28;20226;-61
2023/12/03 05:36:48;;;;;;;2.90;2.70;;;;;;;;;;4980215;28;20239;-61
2023/12/03 05:39:15;;;;;;;2.85;2.60;;;;;;;;;;4980629;28;20215;-61
2023/12/03 05:41:43;;;;;;;2.95;2.70;;;;;;;;;;4980325;28;20211;-61
2023/12/03 05:44:10;;;;;;;2.70;2.50;;;;;;;;;;4979867;28;20215;-61
2023/12/03 05:46:42;;;;;;;3.42;2.80;;;;;;;;;;4979950;28;20215;-61
2023/12/03 05:49:09;;;;;;;2.55;2.35;;;;;;;;;;4979898;28;20247;-61
2023/12/03 05:51:38;;;;;;;2.42;2.22;;;;;;;;;;4979904;28;20220;-61
2023/12/03 05:54:05;;;;;;;3.00;2.80;;;;;;;;;;4979522;28;20485;-61
2023/12/03 05:56:33;;;;;;;2.55;2.35;;;;;;;;;;4980023;28;20305;-61
2023/12/03 05:59:00;;;;;;;2.90;2.70;;;;;;;;;;4979737;28;20208;-61
2023/12/03 06:01:27;;;;;;;2.97;2.70;;;;;;;;;;4979583;28;20214;-61
2023/12/03 06:03:55;;;;;;;2.70;2.50;;;;;;;;;;4979501;28;20208;-61
2023/12/03 06:06:22;;;;;;;2.70;2.50;;;;;;;;;;4980032;28;20216;-61
2023/12/03 06:08:51;;;;;;;2.95;2.65;;;;;;;;;;4979401;28;20218;-61
2023/12/03 06:11:19;;;;;;;3.00;2.70;;;;;;;;;;4979768;28;20247;-61
2023/12/03 06:13:46;;;;;;;3.30;3.00;;;;;;;;;;4979587;28;20607;-61
2023/12/03 06:16:14;;;;;;;2.83;2.63;;;;;;;;;;4979461;28;20579;-61
2023/12/03 06:18:41;;;;;;;2.58;2.38;;;;;;;;;;4979379;28;20504;-61
2023/12/03 06:21:09;;;;;;;2.92;2.72;;;;;;;;;;4979436;28;20208;-61
2023/12/03 06:23:37;;;;;;;3.13;2.83;;;;;;;;;;4979287;28;20215;-61
2023/12/03 06:26:06;;;;;;;3.00;2.72;;;;;;;;;;4979486;28;20207;-61
2023/12/03 06:28:33;;;;;;;3.10;2.90;;;;;;;;;;4979689;28;20535;-61
2023/12/03 06:31:01;;;;;;;2.83;2.63;;;;;;;;;;4979822;28;20234;-61
2023/12/03 06:33:28;;;;;;;2.78;2.55;;;;;;;;;;4979203;28;20216;-61
2023/12/03 06:35:55;;;;;;;3.38;3.08;;;;;;;;;;4979560;28;20216;-61
2023/12/03 06:38:23;;;;;;;3.28;3.00;;;;;;;;;;4978844;28;20239;-61
2023/12/03 06:40:51;;;;;;;3.03;2.75;;;;;;;;;;4979005;28;20208;-61
2023/12/03 06:43:19;;;;;;;3.35;3.05;;;;;;;;;;4979035;28;20497;-61
2023/12/03 06:45:47;;;;;;;2.78;2.58;;;;;;;;;;4979477;28;20219;-61
2023/12/03 06:48:14;;;;;;;3.13;2.92;;;;;;;;;;4979130;28;20448;-61
2023/12/03 06:50:41;;;;;;;3.50;3.20;;;;;;;;;;4979003;28;20208;-61
2023/12/03 06:53:09;;;;;;;3.30;3.00;;;;;;;;;;4979182;28;20239;-61
2023/12/03 06:55:37;;;;;;;3.40;3.10;;;;;;;;;;4978850;28;20241;-61
2023/12/03 06:58:04;;;;;;;3.75;3.45;;;;;;;;;;4979009;28;20238;-61
2023/12/03 07:00:33;;;;;;;3.10;2.80;;;;;;;;;;4978609;28;20253;-61
2023/12/03 07:03:01;;;;;;;3.58;3.28;;;;;;;;;;4978683;28;20263;-61
2023/12/03 07:05:28;;;;;;;3.60;3.30;;;;;;;;;;4977883;28;20207;-61
2023/12/03 07:07:56;;;;;;;8.50;7.70;;;;;;;;;;4978370;28;20210;-61
2023/12/03 07:10:23;;;;;;;6.78;6.18;;;;;;;;;;4978428;28;20208;-61
2023/12/03 07:12:51;;;;;;;50.50;33.72;;;;;;;;;;4978266;28;20270;-61
2023/12/03 07:15:18;;;;;;;35.70;26.25;;;;;;;;;;4977951;28;20208;-61
2023/12/03 07:17:47;;;;;;;28.52;19.95;;;;;;;;;;4977967;28;20227;-61
2023/12/03 07:20:14;;;;;;;24.38;18.75;;;;;;;;;;4978420;28;20216;-61
2023/12/03 07:22:42;;;;;;;20.60;17.33;;;;;;;;;;4977929;28;20238;-61
2023/12/03 07:25:09;;;;;;;21.27;17.08;;;;;;;;;;4978289;28;20208;-61
2023/12/03 07:27:37;;;;;;;21.08;16.27;;;;;;;;;;4978484;28;20588;-61
2023/12/03 07:30:06;;;;;;;18.80;14.98;;;;;;;;;;4978526;28;20277;-61
2023/12/03 07:32:33;;;;;;;20.60;15.13;;;;;;;;;;4977408;28;20207;-61
2023/12/03 07:35:03;;;;;;;17.60;14.70;;;;;;;;;;4978084;28;20208;-61
2023/12/03 07:37:30;;;;;;;17.05;13.40;;;;;;;;;;4978312;28;20253;-61
2023/12/03 07:39:57;;;;;;;16.38;13.77;;;;;;;;;;4978619;28;20250;-61
2023/12/03 07:42:26;;;;;;;17.75;13.43;;;;;;;;;;4978241;28;20245;-61
2023/12/03 07:44:53;;;;;;;15.65;12.85;;;;;;;;;;4977999;28;20601;-61
2023/12/03 07:47:21;;;;;;;15.43;12.82;;;;;;;;;;4978217;28;20231;-61
2023/12/03 07:49:48;;;;;;;14.57;12.80;;;;;;;;;;4977789;28;20219;-61
2023/12/03 07:52:17;;;;;;;15.27;11.82;;;;;;;;;;4978088;28;20654;-61
2023/12/03 07:54:44;;;;;;;15.13;11.90;;;;;;;;;;4977861;28;20215;-61
2023/12/03 07:57:12;;;;;;;15.43;12.00;;;;;;;;;;4977727;28;20238;-61
2023/12/03 07:59:40;;;;;;;14.45;11.32;;;;;;;;;;4978244;28;20278;-61
2023/12/03 08:02:08;;;;;;;13.68;11.77;;;;;;;;;;4977759;28;20223;-61
2023/12/03 08:04:35;;;;;;;13.23;11.05;;;;;;;;;;4977801;28;20208;-61
2023/12/03 08:07:02;;;;;;;12.48;10.50;;;;;;;;;;4977785;28;20518;-61
2023/12/03 08:09:31;;;;;;;14.30;10.63;;;;;;;;;;4978081;28;20211;-61
2023/12/03 08:11:58;;;;;;;11.40;9.25;;;;;;;;;;4977778;28;20504;-61
2023/12/03 08:14:26;;;;;;;11.70;9.85;;;;;;;;;;4977994;28;20208;-61
2023/12/03 08:16:55;;;;;;;11.88;9.93;;;;;;;;;;4977450;28;20231;-61
2023/12/03 08:19:22;;;;;;;11.55;9.65;;;;;;;;;;4977430;28;20571;-61
2023/12/03 08:21:49;;;;;;;10.02;8.98;;;;;;;;;;4978146;28;20215;-61
2023/12/03 08:24:16;;;;;;;11.40;9.43;;;;;;;;;;4976861;28;20208;-61
2023/12/03 08:26:45;;;;;;;10.68;9.52;;;;;;;;;;4977607;28;20506;-61
2023/12/03 08:29:13;;;;;;;10.02;8.77;;;;;;;;;;4977336;28;20498;-61
2023/12/03 08:31:40;;;;;;;9.75;8.65;;;;;;;;;;4977615;28;20609;-61
2023/12/03 08:34:08;;;;;;;10.27;8.57;;;;;;;;;;4977500;28;20518;-61
2023/12/03 08:36:35;;;;;;;9.40;8.40;;;;;;;;;;4977813;28;20271;-61
2023/12/03 08:39:06;;;;;;;9.82;8.43;;;;;;;;;;4977379;28;20243;-61
2023/12/03 08:41:34;;;;;;;9.93;8.30;;;;;;;;;;4977643;28;20216;-61
2023/12/03 08:44:02;;;;;;;9.18;8.23;;;;;;;;;;4980219;28;20219;-61
2023/12/03 08:46:29;;;;;;;9.73;8.18;;;;;;;;;;4980824;28;20500;-61
2023/12/03 08:48:57;;;;;;;8.93;7.82;;;;;;;;;;4980886;28;20233;-61
2023/12/03 08:51:24;;;;;;;8.25;7.30;;;;;;;;;;4980292;28;20218;-61
2023/12/03 08:53:51;;;;;;;9.10;8.10;;;;;;;;;;4980050;28;20659;-61
2023/12/03 08:56:19;;;;;;;8.80;7.32;;;;;;;;;;4980490;28;20303;-61
2023/12/03 08:58:46;;;;;;;8.18;7.18;;;;;;;;;;4979680;28;20247;-61
2023/12/03 09:01:15;;;;;;;8.50;6.95;;;;;;;;;;4980103;28;20627;-62
2023/12/03 09:03:43;;;;;;;8.65;7.32;;;;;;;;;;4980591;28;20215;-61
2023/12/03 09:06:11;;;;;;;7.75;6.95;;;;;;;;;;4980750;28;20235;-61
2023/12/03 09:08:38;;;;;;;9.15;7.20;;;;;;;;;;4980479;28;20208;-61
2023/12/03 09:11:06;;;;;;;7.63;6.90;;;;;;;;;;4979903;28;20321;-61
2023/12/03 09:13:34;;;;;;;7.88;6.43;;;;;;;;;;4980253;28;20215;-61
2023/12/03 09:16:01;;;;;;;7.75;6.70;;;;;;;;;;4979592;28;20619;-61
2023/12/03 09:18:30;;;;;;;8.57;7.38;;;;;;;;;;4980318;28;20242;-61
2023/12/03 09:20:57;;;;;;;7.63;6.63;;;;;;;;;;4980119;28;20403;-61
2023/12/03 09:23:25;;;;;;;7.80;6.90;;;;;;;;;;4980233;28;20211;-61
2023/12/03 09:25:52;;;;;;;7.82;6.60;;;;;;;;;;4979820;28;20207;-61
2023/12/03 09:28:20;;;;;;;7.07;6.00;;;;;;;;;;4980165;28;20211;-61
2023/12/03 09:30:47;;;;;;;8.50;7.70;;;;;;;;;;4979838;28;20704;-61
2023/12/03 09:33:14;;;;;;;9.10;8.20;;;;;;;;;;4980553;28;20207;-61
2023/12/03 09:35:43;;;;;;;9.20;7.70;;;;;;;;;;4980123;28;20603;-61
2023/12/03 09:38:10;;;;;;;7.80;7.00;;;;;;;;;;5011374;28;20513;-61
2023/12/03 09:40:38;;;;;;;8.05;7.22;;;;;;;;;;5019377;28;20210;-61
2023/12/03 09:43:06;;;;;;;8.88;7.47;;;;;;;;;;5018563;28;20590;-61
2023/12/03 09:45:33;;;;;;;7.68;6.88;;;;;;;;;;5018390;28;20213;-61
2023/12/03 09:48:01;;;;;;;8.30;7.50;;;;;;;;;;5018634;28;20209;-61
2023/12/03 09:50:31;;;;;;;12.52;10.70;;;;;;;;;;5018797;28;20287;-61
2023/12/03 09:53:00;;;;;;;14.77;10.60;;;;;;;;;;5017865;28;20214;-61
2023/12/03 09:55:28;;;;;;;12.68;9.73;;;;;;;;;;5017538;28;20201;-61
2023/12/03 09:57:56;;;;;;;10.85;9.27;;;;;;;;;;5018316;28;20245;-61
2023/12/03 10:00:24;;;;;;;11.05;9.05;;;;;;;;;;5018064;28;20206;-61
2023/12/03 10:02:53;;;;;;;12.07;8.90;;;;;;;;;;5018330;28;20621;-61
2023/12/03 10:05:21;;;;;;;10.63;8.63;;;;;;;;;;5018129;28;20260;-61
2023/12/03 10:07:49;;;;;;;9.50;8.50;;;;;;;;;;5017766;28;20194;-61
2023/12/03 10:10:19;;;;;;;10.30;8.40;;;;;;;;;;5018168;28;20234;-61
2023/12/03 10:12:48;;;;;;;9.80;7.82;;;;;;;;;;5018282;28;20250;-61
2023/12/03 10:15:16;;;;;;;45.15;33.50;;;;;;;;;;5017792;28;20272;-61
2023/12/03 10:17:44;;;;;;;93.95;59.88;;;;;;;;;;5017456;28;20626;-61
2023/12/03 10:20:26;;;;;;;73.72;49.78;;;;;;;;;;5017408;28;20206;-61
2023/12/03 10:22:54;;;;;;;64.20;43.28;;;;;;;;;;5017286;28;20214;-61
2023/12/03 10:25:29;;;;;;;62.47;39.33;;;;;;;;;;5017070;28;20210;-61
2023/12/03 10:27:57;;;;;;;52.28;38.25;;;;;;;;;;5018103;28;20202;-61
2023/12/03 10:30:25;;;;;;;54.58;37.22;;;;;;;;;;5017667;28;20206;-61
2023/12/03 10:32:52;;;;;;;47.47;35.00;;;;;;;;;;5017677;28;20199;-61
2023/12/03 10:35:21;;;;;;;44.42;33.55;;;;;;;;;;5017596;28;20210;-60
2023/12/03 10:37:48;;;;;;;47.40;33.70;;;;;;;;;;5017240;28;20292;-60
2023/12/03 10:40:15;;;;;;;41.33;30.77;;;;;;;;;;5017953;28;20221;-60
2023/12/03 10:42:44;;;;;;;46.72;30.42;;;;;;;;;;5017964;28;20301;-60
2023/12/03 10:45:14;;;;;;;40.80;28.65;;;;;;;;;;5017475;28;20206;-60
2023/12/03 10:47:42;;;;;;;84.38;61.40;;;;;;;;;;5017520;28;20210;-60
2023/12/03 10:50:10;;;;;;;77.40;56.47;;;;;;;;;;5017420;28;20481;-60
2023/12/03 10:52:38;;;;;;;150.68;95.53;;;;;;;;;;5017249;28;20609;-60
2023/12/03 10:55:06;;;;;;;132.90;82.85;;;;;;;;;;5017261;28;20217;-60
2023/12/03 10:57:34;;;;;;;116.72;69.60;;;;;;;;;;5016880;28;20579;-60
2023/12/03 11:00:09;;;;;;;110.35;65.28;;;;;;;;;;5017211;28;20203;-60
2023/12/03 11:02:39;;;;;;;104.60;63.20;;;;;;;;;;5016879;28;20214;-60
2023/12/03 11:05:07;;;;;;;101.57;63.47;;;;;;;;;;5016765;28;20225;-60
2023/12/03 11:07:35;;;;;;;104.50;62.08;;;;;;;;;;5016021;28;20236;-60
2023/12/03 11:10:02;;;;;;;97.72;59.90;;;;;;;;;;5017493;28;20261;-60
2023/12/03 11:12:30;;;;;;;92.00;59.13;;;;;;;;;;5016959;28;20241;-60
2023/12/03 11:14:58;;;;;;;92.50;57.78;;;;;;;;;;5016788;28;20210;-60
2023/12/03 11:17:30;;;;;;;89.05;55.38;;;;;;;;;;5016860;28;20206;-60
2023/12/03 11:19:59;;;;;;;89.25;54.40;;;;;;;;;;5016721;28;20221;-60
2023/12/03 11:22:33;;;;;;;81.97;52.58;;;;;;;;;;5016238;28;20229;-60
2023/12/03 11:25:04;;;;;;;76.78;49.47;;;;;;;;;;5016195;28;20220;-60
2023/12/03 11:27:31;;;;;;;78.75;50.15;;;;;;;;;;5016192;28;20213;-60
2023/12/03 11:30:04;;;;;;;73.38;47.78;;;;;;;;;;5016563;28;20213;-60
2023/12/03 11:32:32;;;;;;;73.90;46.65;;;;;;;;;;5016212;28;20301;-60
2023/12/03 11:35:01;;;;;;;71.93;46.95;;;;;;;;;;5015986;28;20205;-60
2023/12/03 11:37:28;;;;;;;66.15;44.17;;;;;;;;;;5015243;28;20245;-60
2023/12/03 11:39:57;;;;;;;65.93;43.50;;;;;;;;;;5016169;28;20230;-60
2023/12/03 11:42:25;;;;;;;63.47;43.20;;;;;;;;;;5016269;28;20234;-60
2023/12/03 11:45:17;;;;;;;62.65;39.30;;;;;;;;;;5016461;28;20233;-60
2023/12/03 11:47:47;;;;;;;60.25;40.65;;;;;;;;;;5015723;28;20206;-60
2023/12/03 11:50:15;;;;;;;58.70;38.92;;;;;;;;;;5015554;28;20214;-60
2023/12/03 11:52:43;;;;;;;56.63;38.33;;;;;;;;;;5016331;28;20581;-60
2023/12/03 11:55:14;;;;;;;55.83;37.47;;;;;;;;;;5016010;28;20209;-60
2023/12/03 11:57:42;;;;;;;53.28;35.88;;;;;;;;;;5016109;28;20294;-60
2023/12/03 12:00:11;;;;;;;53.53;35.90;;;;;;;;;;5016394;28;20206;-60
2023/12/03 12:02:38;;;;;;;52.47;35.58;;;;;;;;;;5015969;28;20617;-60
2023/12/03 12:05:07;;;;;;;47.88;33.53;;;;;;;;;;5016471;28;20206;-60
2023/12/03 12:07:35;;;;;;;42.42;31.77;;;;;;;;;;5016035;28;20206;-60
2023/12/03 12:10:02;;;;;;;47.35;32.60;;;;;;;;;;5016124;28;20545;-60
2023/12/03 12:12:29;;;;;;;44.47;32.35;;;;;;;;;;5016457;28;20213;-60
2023/12/03 12:14:57;;;;;;;44.20;30.83;;;;;;;;;;5015799;28;20214;-60
2023/12/03 12:17:25;;;;;;;42.17;30.25;;;;;;;;;;5016805;28;20210;-60
2023/12/03 12:19:53;;;;;;;41.80;29.55;;;;;;;;;;5019745;28;20230;-60
2023/12/03 12:22:21;;;;;;;39.50;28.45;;;;;;;;;;5019135;28;20216;-60
2023/12/03 12:24:49;;;;;;;42.10;29.38;;;;;;;;;;5019791;28;20202;-60
2023/12/03 12:27:16;;;;;;;38.75;26.35;;;;;;;;;;5019542;28;20217;-60
2023/12/03 12:29:43;;;;;;;38.40;27.13;;;;;;;;;;5018951;28;20593;-60
2023/12/03 12:32:11;;;;;;;37.80;27.13;;;;;;;;;;5018819;28;20207;-60
2023/12/03 12:34:39;;;;;;;37.22;26.27;;;;;;;;;;5019132;28;20362;-60
2023/12/03 12:37:06;;;;;;;33.92;24.40;;;;;;;;;;5019696;28;20672;-60
2023/12/03 12:39:35;;;;;;;35.42;24.77;;;;;;;;;;5019057;28;20229;-60
2023/12/03 12:42:04;;;;;;;32.22;23.48;;;;;;;;;;5019267;28;20206;-60
2023/12/03 12:44:41;;;;;;;31.15;23.67;;;;;;;;;;5019387;28;20206;-60
2023/12/03 12:47:08;;;;;;;35.83;25.52;;;;;;;;;;5018834;28;20638;-60
2023/12/03 12:49:36;;;;;;;38.80;25.80;;;;;;;;;;5018836;28;20198;-60
2023/12/03 12:52:10;;;;;;;36.20;24.27;;;;;;;;;;5019052;28;20212;-60
2023/12/03 12:54:45;;;;;;;32.35;23.55;;;;;;;;;;5016408;28;20209;-60
2023/12/03 12:57:13;;;;;;;34.03;24.05;;;;;;;;;;5017709;28;20206;-60
2023/12/03 12:59:41;;;;;;;31.95;22.92;;;;;;;;;;5018207;28;20230;-60
2023/12/03 13:02:08;;;;;;;31.70;22.35;;;;;;;;;;5018610;28;20213;-60
2023/12/03 13:04:36;;;;;;;32.38;22.98;;;;;;;;;;5018914;28;20240;-60
2023/12/03 13:07:05;;;;;;;30.60;22.55;;;;;;;;;;5018054;28;20206;-60
2023/12/03 13:09:35;;;;;;;29.90;21.33;;;;;;;;;;5018421;28;20210;-60
2023/12/03 13:12:04;;;;;;;25.90;20.33;;;;;;;;;;5018614;28;20210;-60
2023/12/03 13:14:33;;;;;;;27.85;20.80;;;;;;;;;;5018861;28;20203;-60
2023/12/03 13:17:00;;;;;;;26.58;19.60;;;;;;;;;;5018506;28;20262;-60
2023/12/03 13:19:27;;;;;;;25.40;19.42;;;;;;;;;;5018064;28;20230;-60
2023/12/03 13:21:55;;;;;;;26.20;18.45;;;;;;;;;;5018171;28;20199;-60
2023/12/03 13:24:22;;;;;;;30.17;19.02;;;;;;;;;;5018056;28;20531;-60
2023/12/03 13:26:50;;;;;;;29.55;19.52;;;;;;;;;;5018349;28;20214;-60
2023/12/03 13:29:18;;;;;;;33.20;20.65;;;;;;;;;;5017323;28;20296;-60
2023/12/03 13:31:46;;;;;;;29.90;19.73;;;;;;;;;;5017799;28;20198;-60
2023/12/03 13:34:13;;;;;;;30.45;20.48;;;;;;;;;;5018006;28;20221;-60
2023/12/03 13:36:40;;;;;;;30.90;20.33;;;;;;;;;;5017848;28;20230;-60
2023/12/03 13:39:08;;;;;;;38.10;20.40;;;;;;;;;;5017797;28;20230;-60
2023/12/03 13:41:35;;;;;;;33.97;21.30;;;;;;;;;;5018240;28;20493;-60
2023/12/03 13:44:03;;;;;;;37.75;20.92;;;;;;;;;;5017056;28;20586;-60
2023/12/03 13:46:32;;;;;;;36.03;20.65;;;;;;;;;;5017789;28;20217;-60
2023/12/03 13:48:59;;;;;;;33.50;20.30;;;;;;;;;;5017001;28;20202;-60
2023/12/03 13:51:27;;;;;;;34.40;19.00;;;;;;;;;;5017488;28;20217;-60
2023/12/03 13:53:55;;;;;;;35.60;20.30;;;;;;;;;;5016906;28;20233;-60
2023/12/03 13:56:22;;;;;;;35.30;21.27;;;;;;;;;;5015456;28;20264;-60
2023/12/03 13:58:49;;;;;;;35.88;21.38;;;;;;;;;;5016501;28;20547;-60
2023/12/03 14:01:17;;;;;;;37.10;21.48;;;;;;;;;;5017205;28;20214;-60
2023/12/03 14:03:46;;;;;;;36.17;20.30;;;;;;;;;;5015736;28;20202;-60
2023/12/03 14:06:13;;;;;;;34.25;19.17;;;;;;;;;;5016699;28;20202;-60
2023/12/03 14:08:41;;;;;;;34.88;19.67;;;;;;;;;;5007098;28;20217;-60
2023/12/03 14:11:08;;;;;;;37.35;19.60;;;;;;;;;;4997176;28;20602;-60
2023/12/03 14:13:36;;;;;;;32.72;20.35;;;;;;;;;;4997875;28;20490;-60
2023/12/03 14:16:03;;;;;;;32.08;18.83;;;;;;;;;;4996852;28;20207;-60
2023/12/03 14:18:31;;;;;;;30.80;19.38;;;;;;;;;;4996838;28;20304;-60
2023/12/03 14:21:00;;;;;;;34.60;19.42;;;;;;;;;;4996503;28;20221;-60
2023/12/03 14:23:28;;;;;;;31.95;18.73;;;;;;;;;;4996850;28;20217;-60
2023/12/03 14:25:56;;;;;;;32.03;18.00;;;;;;;;;;4996404;28;20213;-60
2023/12/03 14:28:23;;;;;;;30.13;17.85;;;;;;;;;;4996087;28;20243;-60
2023/12/03 14:30:51;;;;;;;31.88;17.92;;;;;;;;;;4997024;28;20638;-60
2023/12/03 14:33:18;;;;;;;32.47;18.33;;;;;;;;;;4996715;28;20207;-60
2023/12/03 14:35:46;;;;;;;28.73;17.33;;;;;;;;;;4996277;28;20206;-60